Time;durP1;ratioP1;P1;durP2;ratioP2;P2;SDS_P1;SDS_P2;PMS_P1;PMS_P2;Temp;Humidity;BMP_temperature;BMP_pressure;BME280_temperature;BME280_humidity;BME280_pressure;Samples;Min_cycle;Max_cycle;Signal;HPM_P1;HPM_P2
2022/01/30 00:00:32;;;;;;;32.00;4.78;;;6.50;99.90;;;;;;4943240;28;244026;-71
2022/01/30 00:02:58;;;;;;;35.03;5.50;;;6.50;99.90;;;;;;4956937;28;20057;-70
2022/01/30 00:05:24;;;;;;;31.75;4.45;;;6.40;99.90;;;;;;4939578;28;111346;-71
2022/01/30 00:07:50;;;;;;;29.08;4.35;;;6.50;99.90;;;;;;4950113;28;20050;-71
2022/01/30 00:10:16;;;;;;;35.50;4.80;;;6.50;99.90;;;;;;4952598;28;195032;-70
2022/01/30 00:12:49;;;;;;;28.23;4.88;;;6.60;99.90;;;;;;4973907;28;20394;-71
2022/01/30 00:15:17;;;;;;;31.33;4.82;;;6.60;99.90;;;;;;4944376;28;226111;-70
2022/01/30 00:17:53;;;;;;;29.90;4.65;;;6.60;99.90;;;;;;4938681;28;20054;-70
2022/01/30 00:20:23;;;;;;;29.10;4.35;;;6.60;99.90;;;;;;4971865;28;96666;-70
2022/01/30 00:23:15;;;;;;;29.35;4.07;;;6.60;99.90;;;;;;4971754;28;20076;-71
2022/01/30 00:25:56;;;;;;;30.63;5.07;;;6.60;99.90;;;;;;4981090;28;47624;-70
2022/01/30 00:28:24;;;;;;;31.77;4.85;;;6.60;99.90;;;;;;4977028;28;20475;-70
2022/01/30 00:30:52;;;;;;;31.58;5.07;;;6.70;99.90;;;;;;4977921;28;27337;-71
2022/01/30 00:33:18;;;;;;;28.85;4.82;;;6.80;99.90;;;;;;4974235;28;20529;-70
2022/01/30 00:35:44;;;;;;;36.53;5.13;;;6.80;99.90;;;;;;5001639;28;82530;-71
2022/01/30 00:38:16;;;;;;;33.67;5.18;;;6.90;99.90;;;;;;4976084;28;20049;-70
2022/01/30 00:40:43;;;;;;;30.30;4.70;;;6.80;99.90;;;;;;4976414;28;231722;-71
2022/01/30 00:43:09;;;;;;;36.45;5.05;;;6.80;99.90;;;;;;4976640;28;20038;-70
2022/01/30 00:45:35;;;;;;;29.52;4.88;;;6.80;99.90;;;;;;4971687;28;44534;-70
2022/01/30 00:48:02;;;;;;;25.38;4.50;;;6.70;99.90;;;;;;4974703;28;20052;-71
2022/01/30 00:50:28;;;;;;;26.08;4.45;;;6.60;99.90;;;;;;4957190;28;224100;-70
2022/01/30 00:52:55;;;;;;;20.27;3.60;;;6.60;99.90;;;;;;4977351;28;20053;-70
2022/01/30 00:55:22;;;;;;;20.00;3.72;;;6.40;99.90;;;;;;4984666;28;202758;-71
2022/01/30 00:57:48;;;;;;;23.83;3.70;;;6.30;99.90;;;;;;4976591;28;20061;-71
2022/01/30 01:00:15;;;;;;;22.85;3.60;;;6.20;99.90;;;;;;4976814;28;173410;-70
2022/01/30 01:02:42;;;;;;;22.42;3.38;;;6.10;99.90;;;;;;4945383;28;20052;-71
2022/01/30 01:05:09;;;;;;;33.65;4.30;;;6.10;99.90;;;;;;4956244;28;105511;-71
2022/01/30 01:07:39;;;;;;;24.77;4.10;;;6.00;99.90;;;;;;4994592;28;20050;-69
2022/01/30 01:10:15;;;;;;;22.92;3.53;;;6.00;99.90;;;;;;4952325;28;20054;-71
2022/01/30 01:23:38;;;;;;;29.08;4.05;;;5.70;99.90;;;;;;4972715;28;20053;-70
2022/01/30 01:26:04;;;;;;;26.42;3.92;;;5.70;99.90;;;;;;4968470;28;21686;-70
2022/01/30 01:28:30;;;;;;;27.63;4.00;;;5.70;99.90;;;;;;4977660;28;20055;-70
2022/01/30 01:30:57;;;;;;;32.30;4.82;;;5.70;99.90;;;;;;4964114;28;194678;-70
2022/01/30 01:33:26;;;;;;;33.65;5.05;;;5.70;99.90;;;;;;4977845;28;20455;-70
2022/01/30 01:35:52;;;;;;;35.03;4.97;;;5.80;99.90;;;;;;4966603;28;20455;-70
2022/01/30 01:38:19;;;;;;;35.97;4.72;;;5.80;99.90;;;;;;4978806;28;20053;-70
2022/01/30 01:40:51;;;;;;;30.48;4.82;;;5.90;99.90;;;;;;4999455;28;42514;-70
2022/01/30 01:43:21;;;;;;;;;;;5.90;99.90;;;;;;4976877;28;20049;-70
2022/01/30 01:45:49;;;;;;;33.13;4.57;;;5.90;99.90;;;;;;4973634;28;184910;-71
2022/01/30 01:48:16;;;;;;;32.92;4.93;;;5.90;99.90;;;;;;4969532;28;20034;-71
2022/01/30 01:50:53;;;;;;;30.35;4.75;;;6.00;99.90;;;;;;4953511;28;237932;-70
2022/01/30 01:53:24;;;;;;;28.73;4.07;;;6.00;99.90;;;;;;4965569;28;20385;-70
2022/01/30 01:55:51;;;;;;;33.78;4.50;;;6.10;99.90;;;;;;4978607;28;125477;-71
2022/01/30 01:58:18;;;;;;;30.63;5.00;;;6.10;99.90;;;;;;4975158;28;20048;-71
2022/01/30 02:00:44;;;;;;;30.50;4.95;;;6.00;99.90;;;;;;5003503;28;175973;-71
2022/01/30 02:03:10;;;;;;;27.88;4.40;;;6.00;99.90;;;;;;4972439;28;20877;-71
2022/01/30 02:05:40;;;;;;;34.03;5.03;;;5.90;99.90;;;;;;4976745;28;144011;-71
2022/01/30 02:24:50;;;;;;;39.13;5.88;;;6.00;99.90;;;;;;4960713;28;20750;-72
2022/01/30 02:27:06;;;;;;;37.25;5.20;;;6.20;99.90;;;;;;5004785;28;20050;-70
2022/01/30 02:29:33;;;;;;;31.85;4.47;;;6.30;99.90;;;;;;4978797;28;93684;-70
2022/01/30 02:32:01;;;;;;;35.00;5.00;;;6.20;99.90;;;;;;4995547;28;20060;-71
2022/01/30 02:34:29;;;;;;;34.92;4.97;;;6.30;99.90;;;;;;4957340;28;39951;-70
2022/01/30 02:36:56;;;;;;;43.15;5.80;;;6.40;99.90;;;;;;4991977;28;20066;-69
2022/01/30 02:39:22;;;;;;;34.78;5.53;;;6.30;99.90;;;;;;4980841;28;20406;-70
2022/01/30 02:41:49;;;;;;;42.22;5.90;;;6.20;99.90;;;;;;5005597;28;20060;-70
2022/01/30 02:44:43;;;;;;;38.97;5.95;;;6.20;99.90;;;;;;4957526;28;74219;-71
2022/01/30 02:47:22;;;;;;;38.97;5.95;;;6.10;99.90;;;;;;4977371;28;20052;-71
2022/01/30 02:52:35;;;;;;;38.40;6.20;;;6.10;99.90;;;;;;5000013;28;20052;-71
2022/01/30 02:55:02;;;;;;;27.33;5.55;;;6.10;99.90;;;;;;4921709;28;252439;-71
2022/01/30 02:57:29;;;;;;;30.83;4.63;;;5.90;99.90;;;;;;5005476;28;20057;-70
2022/01/30 02:59:55;;;;;;;36.28;5.63;;;5.70;99.90;;;;;;4952564;28;237915;-71
2022/01/30 03:02:21;;;;;;;34.65;5.20;;;5.60;99.90;;;;;;5014394;28;20042;-70
2022/01/30 03:04:47;;;;;;;31.58;4.35;;;5.70;99.90;;;;;;4929588;28;243236;-71
2022/01/30 03:07:13;;;;;;;33.20;4.72;;;5.70;99.90;;;;;;5013508;28;20049;-71
2022/01/30 03:09:40;;;;;;;29.58;5.03;;;5.70;99.90;;;;;;4948767;28;191919;-71
2022/01/30 03:12:06;;;;;;;30.70;5.30;;;5.80;99.90;;;;;;5003544;28;20053;-70
2022/01/30 03:14:33;;;;;;;30.13;4.97;;;5.80;99.90;;;;;;4945374;28;255429;-70
2022/01/30 03:17:00;;;;;;;39.33;5.25;;;5.80;99.90;;;;;;4979272;28;20057;-70
2022/01/30 03:19:26;;;;;;;35.05;5.63;;;5.80;99.90;;;;;;4944256;28;234722;-71
2022/01/30 03:21:52;;;;;;;34.85;5.43;;;5.90;99.90;;;;;;5000215;28;20046;-70
2022/01/30 03:24:18;;;;;;;37.03;5.07;;;5.90;99.90;;;;;;4951213;28;109247;-70
2022/01/30 03:26:44;;;;;;;35.45;5.50;;;5.90;99.90;;;;;;5003390;28;20046;-70
2022/01/30 03:29:11;;;;;;;28.38;6.15;;;6.00;99.90;;;;;;4968295;28;175260;-70
2022/01/30 03:31:39;;;;;;;38.42;5.20;;;6.00;99.90;;;;;;4991684;28;20049;-70
2022/01/30 03:34:11;;;;;;;36.65;5.53;;;6.00;99.90;;;;;;4955551;28;36350;-70
2022/01/30 03:36:37;;;;;;;35.85;5.68;;;6.00;99.90;;;;;;5007271;28;20053;-71
2022/01/30 03:39:04;;;;;;;35.67;5.65;;;6.10;99.90;;;;;;4961637;28;133014;-70
2022/01/30 03:41:30;;;;;;;33.75;5.03;;;6.10;99.90;;;;;;4989688;28;20058;-70
2022/01/30 03:43:57;;;;;;;44.33;6.93;;;6.10;99.90;;;;;;4966183;28;224820;-70
2022/01/30 03:46:23;;;;;;;35.67;5.88;;;6.10;99.90;;;;;;4991903;28;20046;-71
2022/01/30 03:48:50;;;;;;;42.63;6.47;;;6.10;99.90;;;;;;4960824;28;85213;-70
2022/01/30 03:51:16;;;;;;;38.22;5.55;;;6.10;99.90;;;;;;4982252;28;20045;-70
2022/01/30 03:53:43;;;;;;;41.80;7.00;;;6.20;99.90;;;;;;4960039;28;55289;-70
2022/01/30 03:56:10;;;;;;;34.50;5.88;;;6.20;99.90;;;;;;5000584;28;20533;-71
2022/01/30 03:58:36;;;;;;;47.28;6.20;;;6.20;99.90;;;;;;4975815;28;20100;-70
2022/01/30 04:01:03;;;;;;;41.50;6.25;;;6.20;99.90;;;;;;4972617;28;152705;-71
2022/01/30 04:03:29;;;;;;;39.28;6.57;;;6.20;99.90;;;;;;4977325;28;20042;-71
2022/01/30 04:05:55;;;;;;;44.50;7.03;;;6.30;99.90;;;;;;4957496;28;208314;-72
2022/01/30 04:08:22;;;;;;;37.70;6.20;;;6.30;99.90;;;;;;4977781;28;20467;-71
2022/01/30 04:10:48;;;;;;;38.97;5.82;;;6.40;99.90;;;;;;4977586;28;120023;-71
2022/01/30 04:13:14;;;;;;;41.58;6.25;;;6.50;99.90;;;;;;4972833;28;20061;-71
2022/01/30 04:15:40;;;;;;;39.95;6.00;;;6.40;99.90;;;;;;4983598;28;180573;-71
2022/01/30 04:18:07;;;;;;;41.95;6.55;;;6.40;99.90;;;;;;4978070;28;20058;-72
2022/01/30 04:20:33;;;;;;;38.85;6.40;;;6.40;99.90;;;;;;4991265;28;120082;-71
2022/01/30 04:22:59;;;;;;;48.13;8.10;;;6.40;99.90;;;;;;4977127;28;20050;-71
2022/01/30 04:25:25;;;;;;;43.88;6.50;;;6.40;99.90;;;;;;4980247;28;20532;-71
2022/01/30 04:27:52;;;;;;;39.33;6.65;;;6.40;99.90;;;;;;4974561;28;20519;-72
2022/01/30 04:30:18;;;;;;;34.83;6.72;;;6.30;99.90;;;;;;4982252;28;20510;-72
2022/01/30 04:32:44;;;;;;;40.20;6.72;;;6.10;99.90;;;;;;4973590;28;20065;-72
2022/01/30 04:35:18;;;;;;;38.85;6.95;;;5.90;99.90;;;;;;4997704;28;47236;-72
2022/01/30 04:54:43;;;;;;;47.20;7.30;;;5.70;99.90;;;;;;4887227;28;209170;-72
2022/01/30 04:59:45;;;;;;;48.97;7.57;;;5.80;99.90;;;;;;4902016;28;20577;-71
2022/01/30 05:04:51;;;;;;;45.08;7.80;;;5.80;99.90;;;;;;4869156;28;177147;-72
2022/01/30 05:09:44;;;;;;;60.67;9.23;;;5.80;99.90;;;;;;4907932;28;43675;-72
2022/01/30 05:12:11;;;;;;;55.92;9.27;;;5.70;99.90;;;;;;4960410;28;20058;-72
2022/01/30 05:14:38;;;;;;;49.08;7.95;;;5.60;99.90;;;;;;4887355;28;142345;-72
2022/01/30 05:17:06;;;;;;;56.40;8.98;;;5.60;99.90;;;;;;4963539;28;20047;-72
2022/01/30 05:19:32;;;;;;;50.38;8.90;;;5.60;99.90;;;;;;4890424;28;259916;-72
2022/01/30 05:21:59;;;;;;;48.15;7.72;;;5.60;99.90;;;;;;4992440;28;20060;-71
2022/01/30 05:24:25;;;;;;;44.78;7.60;;;5.60;99.90;;;;;;4969632;28;239460;-72
2022/01/30 05:26:51;;;;;;;36.35;6.65;;;5.60;99.90;;;;;;4994962;28;20061;-72
2022/01/30 05:29:18;;;;;;;37.88;5.82;;;5.50;99.90;;;;;;4973326;28;20054;-72
2022/01/30 05:31:45;;;;;;;38.90;5.57;;;5.50;99.90;;;;;;4994696;28;20053;-72
2022/01/30 05:34:11;;;;;;;39.30;6.43;;;5.40;99.90;;;;;;4955639;28;126812;-71
2022/01/30 05:36:39;;;;;;;39.05;7.55;;;5.40;99.90;;;;;;4977354;28;20399;-72
2022/01/30 05:39:06;;;;;;;46.85;7.78;;;5.40;99.90;;;;;;4957681;28;119391;-72
2022/01/30 05:41:33;;;;;;;51.45;8.23;;;5.50;99.90;;;;;;4987125;28;20414;-72
2022/01/30 05:44:08;;;;;;;48.80;7.55;;;5.50;99.90;;;;;;4952276;28;90342;-72
2022/01/30 05:46:42;;;;;;;46.92;8.15;;;5.60;99.90;;;;;;5001033;28;20057;-72
2022/01/30 05:49:12;;;;;;;57.15;8.82;;;5.50;99.90;;;;;;4956733;28;168550;-72
2022/01/30 05:51:38;;;;;;;56.85;8.13;;;5.60;99.90;;;;;;4975353;28;20049;-72
2022/01/30 05:54:04;;;;;;;49.22;7.90;;;5.60;99.90;;;;;;4966430;28;173417;-72
2022/01/30 05:56:30;;;;;;;48.17;7.82;;;5.60;99.90;;;;;;5002472;28;20085;-72
2022/01/30 05:58:57;;;;;;;55.70;8.15;;;5.70;99.90;;;;;;4954403;28;153375;-72
2022/01/30 06:01:23;;;;;;;55.13;8.98;;;5.70;99.90;;;;;;5008691;28;20046;-72
2022/01/30 06:03:49;;;;;;;51.92;8.10;;;5.70;99.90;;;;;;4944153;28;179134;-72
2022/01/30 06:06:15;;;;;;;51.88;7.65;;;5.80;99.90;;;;;;4973682;28;20050;-72
2022/01/30 06:11:12;;;;;;;49.60;7.60;;;5.90;99.90;;;;;;5008424;28;20050;-72
2022/01/30 06:13:38;;;;;;;47.72;7.85;;;5.90;99.90;;;;;;4970815;28;117421;-70
2022/01/30 06:16:05;;;;;;;42.30;7.75;;;5.90;99.90;;;;;;4969050;28;20400;-71
2022/01/30 06:18:32;;;;;;;43.95;6.95;;;5.90;99.90;;;;;;4985070;28;20049;-71
2022/01/30 06:20:58;;;;;;;45.83;7.72;;;6.00;99.90;;;;;;4986437;28;154840;-72
2022/01/30 06:23:26;;;;;;;40.15;7.40;;;6.00;99.90;;;;;;4971553;28;20467;-72
2022/01/30 06:25:53;;;;;;;58.63;8.70;;;6.00;99.90;;;;;;4973014;28;245286;-72
2022/01/30 06:28:19;;;;;;;53.40;8.55;;;6.00;99.90;;;;;;4971977;28;20402;-72
2022/01/30 06:30:45;;;;;;;44.83;7.85;;;6.00;99.90;;;;;;4957454;28;145155;-72
2022/01/30 06:33:12;;;;;;;53.97;8.57;;;6.00;99.90;;;;;;4974718;28;20052;-73
2022/01/30 06:35:38;;;;;;;55.13;8.40;;;6.00;99.90;;;;;;4969746;28;184165;-73
2022/01/30 06:38:04;;;;;;;47.42;7.43;;;6.00;99.90;;;;;;4975008;28;20429;-73
2022/01/30 06:40:31;;;;;;;45.95;7.47;;;6.00;99.90;;;;;;4983123;28;136178;-73
2022/01/30 06:42:57;;;;;;;45.90;7.18;;;6.00;99.90;;;;;;4974975;28;20046;-73
2022/01/30 06:45:23;;;;;;;47.97;8.70;;;6.00;99.90;;;;;;4979765;28;143112;-73
2022/01/30 06:47:51;;;;;;;46.45;8.20;;;6.00;99.90;;;;;;4958587;28;20057;-73
2022/01/30 06:50:18;;;;;;;43.40;7.95;;;6.00;99.90;;;;;;4969691;28;244185;-72
2022/01/30 06:52:44;;;;;;;52.10;7.43;;;6.00;99.90;;;;;;4970640;28;20057;-72
2022/01/30 06:55:10;;;;;;;49.08;8.23;;;6.10;99.90;;;;;;4984239;28;209574;-72
2022/01/30 06:57:44;;;;;;;52.00;8.25;;;6.10;99.90;;;;;;5005777;28;20656;-72
2022/01/30 07:00:12;;;;;;;45.90;7.13;;;6.10;99.00;;;;;;4960908;28;23009;-73
2022/01/30 07:02:38;;;;;;;49.25;7.45;;;6.20;99.00;;;;;;4997550;28;20062;-74
2022/01/30 07:05:05;;;;;;;49.63;7.68;;;6.10;98.90;;;;;;4939290;28;129198;-72
2022/01/30 07:07:31;;;;;;;55.70;7.80;;;6.10;98.70;;;;;;4999786;28;20050;-72
2022/01/30 07:09:57;;;;;;;47.42;7.65;;;6.10;98.80;;;;;;4935519;28;243357;-73
2022/01/30 07:12:24;;;;;;;46.00;7.53;;;6.10;97.80;;;;;;5000321;28;20057;-72
2022/01/30 07:14:50;;;;;;;46.42;7.00;;;6.20;97.50;;;;;;4946041;28;123385;-72
2022/01/30 07:17:16;;;;;;;33.33;6.57;;;6.20;97.30;;;;;;5000441;28;20058;-73
2022/01/30 07:19:42;;;;;;;46.63;7.93;;;6.20;96.60;;;;;;4948179;28;229741;-72
2022/01/30 07:22:08;;;;;;;44.45;7.70;;;6.20;96.30;;;;;;5004348;28;20404;-72
2022/01/30 07:24:34;;;;;;;52.40;8.80;;;6.20;96.70;;;;;;4954155;28;260037;-72
2022/01/30 07:27:00;;;;;;;51.22;6.93;;;6.20;96.90;;;;;;5006281;28;20045;-72
2022/01/30 07:29:26;;;;;;;52.45;8.75;;;6.30;96.70;;;;;;4955554;28;255695;-71
2022/01/30 07:31:53;;;;;;;48.22;7.80;;;6.20;96.90;;;;;;4993637;28;20506;-71
2022/01/30 07:34:21;;;;;;;55.25;8.73;;;6.30;97.00;;;;;;4951974;28;169482;-72
2022/01/30 07:36:47;;;;;;;50.92;8.77;;;6.30;97.00;;;;;;4973423;28;20478;-71
2022/01/30 07:39:16;;;;;;;47.28;7.47;;;6.20;97.20;;;;;;4964977;28;66136;-71
2022/01/30 07:41:43;;;;;;;54.97;7.75;;;6.20;97.30;;;;;;4976641;28;20069;-71
2022/01/30 07:44:09;;;;;;;48.22;7.70;;;6.20;97.50;;;;;;4967439;28;141906;-71
2022/01/30 07:46:36;;;;;;;42.30;7.45;;;6.20;97.00;;;;;;5010764;28;20050;-71
2022/01/30 07:49:02;;;;;;;51.10;7.95;;;6.20;97.40;;;;;;4956242;28;63425;-71
2022/01/30 07:51:28;;;;;;;64.07;8.80;;;6.20;97.60;;;;;;4973219;28;20068;-71
2022/01/30 07:53:54;;;;;;;53.63;8.30;;;6.20;97.80;;;;;;4958105;28;72082;-71
2022/01/30 07:56:21;;;;;;;55.72;8.02;;;6.20;97.50;;;;;;4996503;28;20065;-71
2022/01/30 07:58:47;;;;;;;48.13;8.48;;;6.20;97.80;;;;;;4964941;28;21258;-70
2022/01/30 08:01:13;;;;;;;47.03;7.82;;;6.10;97.50;;;;;;4985317;28;20053;-70
2022/01/30 08:03:39;;;;;;;47.78;7.60;;;6.10;97.10;;;;;;4960440;28;101659;-70
2022/01/30 08:06:05;;;;;;;41.38;7.13;;;6.10;96.80;;;;;;4971879;28;132753;-71
2022/01/30 08:08:31;;;;;;;41.97;7.00;;;6.10;95.30;;;;;;4973514;28;20046;-70
2022/01/30 08:10:57;;;;;;;48.25;6.80;;;6.10;94.40;;;;;;4993769;28;232214;-70
2022/01/30 08:13:23;;;;;;;42.38;6.80;;;6.10;94.60;;;;;;4977408;28;20057;-70
2022/01/30 08:15:49;;;;;;;31.20;5.68;;;6.00;93.70;;;;;;4986925;28;50425;-70
2022/01/30 08:18:16;;;;;;;37.60;5.93;;;6.00;93.00;;;;;;4975703;28;20517;-71
2022/01/30 08:20:42;;;;;;;36.88;6.20;;;6.10;92.60;;;;;;4984227;28;147973;-71
2022/01/30 08:23:16;;;;;;;36.83;5.85;;;6.10;92.60;;;;;;4977583;28;20526;-71
2022/01/30 08:25:42;;;;;;;32.22;5.63;;;6.10;91.80;;;;;;4974646;28;155774;-71
2022/01/30 08:28:09;;;;;;;40.22;6.45;;;6.10;90.60;;;;;;4980037;28;20053;-71
2022/01/30 08:30:35;;;;;;;41.65;6.47;;;6.10;90.60;;;;;;4984927;28;74343;-71
2022/01/30 08:33:02;;;;;;;45.50;7.68;;;6.10;90.10;;;;;;4973781;28;20056;-71
2022/01/30 08:35:29;;;;;;;39.72;6.85;;;6.10;90.30;;;;;;5002242;28;52480;-72
2022/01/30 08:37:56;;;;;;;38.60;6.68;;;6.10;89.90;;;;;;4977413;28;24961;-73
2022/01/30 08:40:23;;;;;;;45.42;6.70;;;6.20;90.30;;;;;;4983191;28;273052;-72
2022/01/30 08:42:50;;;;;;;45.47;7.25;;;6.20;90.70;;;;;;4974757;28;20054;-72
2022/01/30 08:45:18;;;;;;;56.83;6.88;;;6.20;90.30;;;;;;4983958;28;143780;-72
2022/01/30 08:47:46;;;;;;;40.45;6.97;;;6.20;90.70;;;;;;4969430;28;20058;-72
2022/01/30 08:50:14;;;;;;;45.67;7.20;;;6.10;90.70;;;;;;4970779;28;215698;-72
2022/01/30 08:52:42;;;;;;;45.03;6.78;;;6.10;90.70;;;;;;4973890;28;20064;-71
2022/01/30 08:55:10;;;;;;;40.08;7.20;;;6.10;91.00;;;;;;4986525;28;157736;-72
2022/01/30 08:57:36;;;;;;;44.63;7.22;;;6.20;90.70;;;;;;4994643;28;20045;-71
2022/01/30 09:00:05;;;;;;;40.60;6.70;;;6.30;90.50;;;;;;4964074;28;34157;-72
2022/01/30 09:02:32;;;;;;;50.00;7.25;;;6.30;90.50;;;;;;4995727;28;20072;-73
2022/01/30 09:04:58;;;;;;;48.63;7.90;;;6.40;90.60;;;;;;4927905;28;150160;-72
2022/01/30 09:07:24;;;;;;;44.85;7.30;;;6.40;90.60;;;;;;4995083;28;20046;-72
2022/01/30 09:09:50;;;;;;;54.42;8.23;;;6.40;90.70;;;;;;4958884;28;160039;-72
2022/01/30 09:12:16;;;;;;;45.03;7.15;;;6.40;90.30;;;;;;5003964;28;20074;-73
2022/01/30 09:14:43;;;;;;;46.58;7.72;;;6.40;90.30;;;;;;4951848;28;191176;-72
2022/01/30 09:17:15;;;;;;;42.30;7.70;;;6.40;90.40;;;;;;4994958;28;20058;-72
2022/01/30 09:19:44;;;;;;;41.08;7.10;;;6.30;90.60;;;;;;4967821;28;256448;-73
2022/01/30 09:22:13;;;;;;;52.17;7.07;;;6.30;91.00;;;;;;4990299;28;20054;-71
2022/01/30 09:24:39;;;;;;;44.00;7.95;;;6.30;91.50;;;;;;4964964;28;78303;-70
2022/01/30 09:27:07;;;;;;;51.70;8.13;;;6.40;91.10;;;;;;4975798;28;20057;-70
2022/01/30 09:29:35;;;;;;;50.72;8.88;;;6.50;91.40;;;;;;4950496;28;223541;-72
2022/01/30 09:32:03;;;;;;;47.88;7.22;;;6.50;90.90;;;;;;4972344;28;20477;-71
2022/01/30 09:34:31;;;;;;;41.72;7.25;;;6.50;91.20;;;;;;4928763;28;82555;-71
2022/01/30 09:36:57;;;;;;;55.13;8.02;;;6.40;90.30;;;;;;5000211;28;20061;-71
2022/01/30 09:39:24;;;;;;;51.65;7.60;;;6.40;90.80;;;;;;4954594;28;185073;-71
2022/01/30 09:41:52;;;;;;;48.95;7.65;;;6.50;91.10;;;;;;4991608;28;20053;-71
2022/01/30 09:44:20;;;;;;;55.90;7.20;;;6.60;91.30;;;;;;4947700;28;31036;-72
2022/01/30 09:46:46;;;;;;;53.92;7.72;;;6.70;91.10;;;;;;4991594;28;20395;-72
2022/01/30 09:49:14;;;;;;;47.35;7.65;;;6.70;91.40;;;;;;4956472;28;148568;-71
2022/01/30 09:51:43;;;;;;;43.83;7.88;;;6.70;91.20;;;;;;4981104;28;20076;-72
2022/01/30 09:54:12;;;;;;;41.15;7.47;;;6.70;91.40;;;;;;4954941;28;205180;-72
2022/01/30 09:56:39;;;;;;;46.50;8.05;;;6.70;91.60;;;;;;4991347;28;20070;-70
2022/01/30 09:59:06;;;;;;;46.67;7.72;;;6.70;91.40;;;;;;4947725;28;231152;-70
2022/01/30 10:01:35;;;;;;;46.67;7.78;;;6.70;91.50;;;;;;4987657;28;20060;-71
2022/01/30 10:04:03;;;;;;;46.13;7.63;;;6.70;91.10;;;;;;4921580;28;134565;-71
2022/01/30 10:06:36;;;;;;;46.70;7.10;;;6.70;91.50;;;;;;4985956;28;20045;-71
2022/01/30 10:09:29;;;;;;;43.58;7.45;;;6.80;91.30;;;;;;4958555;28;109040;-71
2022/01/30 10:12:28;;;;;;;49.72;6.82;;;6.80;90.30;;;;;;4992512;28;20062;-71
2022/01/30 10:15:04;;;;;;;46.25;7.03;;;6.90;90.90;;;;;;4946402;28;46390;-70
2022/01/30 10:17:46;;;;;;;45.40;7.72;;;6.90;89.80;;;;;;4996167;28;20049;-71
2022/01/30 10:20:26;;;;;;;39.38;6.22;;;6.90;89.30;;;;;;4936978;28;109861;-72
2022/01/30 10:23:01;;;;;;;38.35;6.07;;;7.00;89.70;;;;;;4977449;28;20523;-72
2022/01/30 10:25:33;;;;;;;50.35;7.53;;;7.10;88.70;;;;;;4989547;28;166096;-73
2022/01/30 10:28:11;;;;;;;41.25;6.60;;;7.10;87.20;;;;;;4979187;28;20042;-73
2022/01/30 10:30:53;;;;;;;40.28;6.07;;;7.30;86.00;;;;;;4987860;28;196632;-72
2022/01/30 10:33:21;;;;;;;42.53;7.25;;;7.40;87.20;;;;;;4978417;28;20048;-72
2022/01/30 10:35:52;;;;;;;52.22;8.02;;;7.50;87.20;;;;;;5011621;28;20068;-73
2022/01/30 10:38:22;;;;;;;48.25;6.97;;;7.50;87.80;;;;;;4983890;28;20044;-74
2022/01/30 10:40:57;;;;;;;42.65;7.78;;;7.50;86.80;;;;;;4977465;28;104023;-73
2022/01/30 10:43:51;;;;;;;47.22;9.20;;;7.40;87.90;;;;;;4980565;28;20053;-74
2022/01/30 10:46:19;;;;;;;47.60;8.55;;;7.40;89.10;;;;;;5006892;28;20392;-73
2022/01/30 10:48:56;;;;;;;44.65;7.57;;;7.30;90.00;;;;;;4948233;28;40938;-73
2022/01/30 10:51:23;;;;;;;39.30;6.78;;;7.20;89.80;;;;;;4977982;28;20077;-72
2022/01/30 10:53:51;;;;;;;55.75;8.65;;;7.20;90.40;;;;;;4955954;28;178227;-74
2022/01/30 10:56:29;;;;;;;44.00;8.07;;;7.20;90.70;;;;;;5003022;28;20057;-73
2022/01/30 10:59:11;;;;;;;40.15;7.35;;;7.20;90.40;;;;;;4950236;28;127630;-74
2022/01/30 11:01:43;;;;;;;58.15;8.15;;;7.20;89.30;;;;;;4999495;28;20054;-73
2022/01/30 11:04:22;;;;;;;;;;;7.20;90.10;;;;;;4928713;28;206248;-73
2022/01/30 11:06:48;;;;;;;57.10;6.78;;;7.30;90.30;;;;;;4990128;28;19921;-72
2022/01/30 11:09:20;;;;;;;48.40;7.95;;;7.30;90.30;;;;;;4958913;28;271181;-73
2022/01/30 11:11:55;;;;;;;44.80;7.07;;;7.20;87.00;;;;;;5000825;28;20073;-72
2022/01/30 11:14:34;;;;;;;45.95;6.68;;;7.20;86.50;;;;;;4967182;28;120000;-73
2022/01/30 11:17:11;;;;;;;38.78;6.07;;;7.20;86.60;;;;;;4987102;28;20053;-73
2022/01/30 11:19:39;;;;;;;52.10;6.88;;;7.20;86.40;;;;;;4964205;28;152764;-73
2022/01/30 11:22:14;;;;;;;40.72;7.50;;;7.30;86.70;;;;;;5004987;28;20086;-73
2022/01/30 11:24:48;;;;;;;40.30;6.38;;;7.30;85.20;;;;;;4946970;28;216820;-73
2022/01/30 11:27:20;;;;;;;40.38;6.70;;;7.40;85.20;;;;;;5011777;28;20053;-73
2022/01/30 11:29:47;;;;;;;46.70;6.72;;;7.40;82.60;;;;;;4960778;28;119673;-73
2022/01/30 11:32:14;;;;;;;44.80;7.07;;;7.50;82.80;;;;;;4998041;28;20050;-73
2022/01/30 11:34:42;;;;;;;35.85;6.85;;;7.60;82.00;;;;;;4943874;28;20545;-73
2022/01/30 11:37:09;;;;;;;35.22;7.13;;;7.70;81.00;;;;;;4999443;28;20053;-72
2022/01/30 11:39:41;;;;;;;35.00;5.75;;;7.60;80.80;;;;;;4959762;28;101499;-73
2022/01/30 11:42:25;;;;;;;41.05;6.82;;;7.70;81.70;;;;;;4994552;28;20062;-74
2022/01/30 11:45:00;;;;;;;38.50;6.18;;;7.70;80.40;;;;;;4931512;28;64542;-73
2022/01/30 11:47:26;;;;;;;44.78;6.55;;;7.50;79.70;;;;;;4991560;28;20041;-72
2022/01/30 11:50:04;;;;;;;43.45;6.88;;;7.40;79.20;;;;;;4957681;28;184829;-74
2022/01/30 11:52:48;;;;;;;37.13;5.75;;;7.40;80.70;;;;;;5000939;28;20069;-75
2022/01/30 11:55:57;;;;;;;47.05;6.63;;;7.50;80.80;;;;;;4957166;28;46599;-73
2022/01/30 11:58:32;;;;;;;45.50;6.85;;;7.50;80.00;;;;;;4967252;28;20097;-73
2022/01/30 12:00:59;;;;;;;37.75;6.72;;;7.70;81.30;;;;;;4968332;28;160266;-74
2022/01/30 12:03:28;;;;;;;38.10;6.85;;;7.70;79.70;;;;;;4960305;28;20480;-73
2022/01/30 12:05:55;;;;;;;36.80;7.20;;;7.80;79.40;;;;;;4947245;28;135621;-73
2022/01/30 12:08:44;;;;;;;40.22;7.28;;;7.80;80.30;;;;;;4954841;28;20068;-74
2022/01/30 12:11:29;;;;;;;36.72;6.93;;;7.90;79.60;;;;;;4966883;28;20042;-74
2022/01/30 12:13:55;;;;;;;40.83;7.47;;;8.00;80.00;;;;;;4963008;28;60665;-74
2022/01/30 12:16:56;;;;;;;39.15;6.72;;;7.90;80.10;;;;;;5001551;28;20064;-74
2022/01/30 12:19:31;;;;;;;40.97;6.67;;;7.70;80.70;;;;;;4962458;28;105364;-74
2022/01/30 12:22:15;;;;;;;41.53;6.78;;;7.60;81.10;;;;;;4990514;28;20300;-75
2022/01/30 12:24:43;;;;;;;38.55;6.13;;;7.60;80.70;;;;;;4984722;28;217805;-75
2022/01/30 12:27:09;;;;;;;43.53;7.32;;;7.80;81.80;;;;;;4979856;28;20061;-74
2022/01/30 12:29:40;;;;;;;42.47;6.47;;;8.40;81.40;;;;;;4958579;28;47730;-75
2022/01/30 12:32:24;;;;;;;35.83;6.05;;;8.80;78.90;;;;;;5001523;28;20515;-74
2022/01/30 12:34:56;;;;;;;34.53;6.30;;;8.50;79.80;;;;;;4947369;28;20451;-73
2022/01/30 12:37:31;;;;;;;38.92;6.95;;;8.40;79.90;;;;;;4994711;28;20049;-74
2022/01/30 12:40:14;;;;;;;41.45;6.75;;;8.30;79.70;;;;;;4955520;28;20041;-73
2022/01/30 12:42:41;;;;;;;37.63;7.03;;;8.10;81.10;;;;;;4977658;28;20057;-73
2022/01/30 12:45:09;;;;;;;40.38;7.45;;;7.80;80.90;;;;;;4934015;28;30159;-73
2022/01/30 12:47:58;;;;;;;42.40;5.90;;;8.00;80.80;;;;;;4980934;28;20105;-74
2022/01/30 12:50:28;;;;;;;49.05;6.85;;;9.10;80.10;;;;;;4957566;28;68546;-74
2022/01/30 12:52:54;;;;;;;38.83;6.78;;;9.90;80.40;;;;;;4999807;28;20089;-74
2022/01/30 12:55:22;;;;;;;41.60;7.03;;;9.20;76.50;;;;;;4959585;28;148699;-73
2022/01/30 12:57:51;;;;;;;44.67;6.72;;;8.70;78.90;;;;;;4988058;28;20075;-73
2022/01/30 13:00:17;;;;;;;40.45;6.82;;;8.70;80.20;;;;;;4952768;28;256601;-73
2022/01/30 13:02:58;;;;;;;40.65;7.45;;;9.10;79.30;;;;;;4983744;28;20049;-73
2022/01/30 13:05:26;;;;;;;38.57;6.80;;;9.50;78.60;;;;;;4931314;28;87724;-73
2022/01/30 13:07:59;;;;;;;40.00;7.40;;;9.00;78.40;;;;;;4986087;28;20046;-75
2022/01/30 13:10:26;;;;;;;36.97;6.72;;;8.80;77.80;;;;;;4958216;28;132165;-73
2022/01/30 13:12:55;;;;;;;41.58;7.18;;;9.00;77.60;;;;;;4991025;28;20060;-73
2022/01/30 13:15:23;;;;;;;34.85;6.20;;;9.70;77.70;;;;;;4955297;28;83615;-74
2022/01/30 13:17:53;;;;;;;36.75;6.50;;;10.20;73.90;;;;;;4998456;28;20502;-73
2022/01/30 13:20:24;;;;;;;32.88;6.15;;;10.70;75.00;;;;;;4953769;28;163657;-74
2022/01/30 13:22:52;;;;;;;35.92;6.28;;;10.80;70.10;;;;;;5009555;28;20058;-74
2022/01/30 13:25:19;;;;;;;39.50;6.45;;;10.70;70.20;;;;;;4953175;28;192687;-74
2022/01/30 13:27:53;;;;;;;43.78;6.75;;;10.80;70.30;;;;;;4972365;28;20061;-74
2022/01/30 13:30:24;;;;;;;35.40;5.78;;;11.30;70.50;;;;;;4962441;28;264036;-74
2022/01/30 13:32:51;;;;;;;32.05;5.97;;;11.20;65.00;;;;;;5002625;28;20072;-74
2022/01/30 13:35:21;;;;;;;31.17;5.75;;;11.20;66.10;;;;;;4960587;28;101106;-73
2022/01/30 13:37:48;;;;;;;38.05;5.78;;;11.10;65.40;;;;;;4988603;28;20590;-73
2022/01/30 13:40:22;;;;;;;31.58;5.40;;;10.60;66.60;;;;;;4955884;28;98628;-73
2022/01/30 13:43:05;;;;;;;29.60;5.63;;;9.80;64.10;;;;;;4984950;28;20471;-74
2022/01/30 13:48:03;;;;;;;30.10;5.20;;;10.30;65.00;;;;;;4996791;28;20050;-72
2022/01/30 13:50:32;;;;;;;31.70;5.43;;;10.70;66.50;;;;;;4943756;28;20503;-73
2022/01/30 13:53:05;;;;;;;27.80;5.45;;;10.40;64.80;;;;;;4974993;28;20072;-72